createdAt,value
2023-03-17T00:00:08.078Z,6.80
2023-03-17T00:01:44.666Z,6.03
2023-03-17T00:03:24.727Z,5.95
2023-03-17T00:04:56.496Z,6.00
2023-03-17T00:06:30.385Z,6.50
2023-03-17T00:08:13.055Z,4.80
2023-03-17T00:09:44.844Z,5.38
2023-03-17T00:11:17.680Z,5.80
2023-03-17T00:12:58.536Z,5.65
2023-03-17T00:14:30.965Z,5.53
2023-03-17T00:16:04.781Z,5.93
2023-03-17T00:17:37.128Z,5.72
2023-03-17T00:19:17.254Z,5.43
2023-03-17T00:20:49.412Z,5.55
2023-03-17T00:22:22.363Z,5.80
2023-03-17T00:23:54.885Z,5.20
2023-03-17T00:25:29.146Z,5.05
2023-03-17T00:27:00.881Z,5.38
2023-03-17T00:28:32.578Z,7.05
2023-03-17T00:30:05.448Z,5.03
2023-03-17T00:31:38.205Z,5.93
2023-03-17T00:33:10.737Z,6.22
2023-03-17T00:34:42.740Z,5.78
2023-03-17T00:36:21.342Z,5.05
2023-03-17T00:37:55.562Z,6.55
2023-03-17T00:39:28.682Z,5.80
2023-03-17T00:41:00.259Z,5.57
2023-03-17T00:42:32.679Z,6.18
2023-03-17T00:44:05.379Z,6.78
2023-03-17T00:45:39.874Z,7.00
2023-03-17T00:47:11.863Z,6.88
2023-03-17T00:48:45.114Z,7.60
2023-03-17T00:50:22.526Z,8.13
2023-03-17T00:51:54.294Z,7.88
2023-03-17T00:53:27.121Z,8.52
2023-03-17T00:54:59.121Z,8.20
2023-03-17T00:56:31.098Z,9.25
2023-03-17T00:58:10.467Z,8.95
2023-03-17T00:59:45.173Z,8.77
2023-03-17T01:01:18.479Z,8.82
2023-03-17T01:02:54.268Z,8.65
2023-03-17T01:04:25.903Z,7.97
2023-03-17T01:05:57.809Z,7.82
2023-03-17T01:07:30.468Z,8.30
2023-03-17T01:09:02.096Z,6.97
2023-03-17T01:10:33.744Z,9.23
2023-03-17T01:12:06.352Z,9.35
2023-03-17T01:13:40.494Z,10.07
2023-03-17T01:15:13.996Z,9.30
2023-03-17T01:16:45.720Z,12.95
2023-03-17T01:18:19.602Z,9.73
2023-03-17T01:19:51.287Z,10.10
2023-03-17T01:21:23.835Z,10.88
2023-03-17T01:22:55.880Z,12.93
2023-03-17T01:24:28.534Z,14.80
2023-03-17T01:26:00.143Z,15.40
2023-03-17T01:27:36.521Z,15.35
2023-03-17T01:29:09.318Z,15.23
2023-03-17T01:30:42.530Z,14.95
2023-03-17T01:32:14.130Z,15.45
2023-03-17T01:33:46.065Z,14.85
2023-03-17T01:35:19.479Z,13.98
2023-03-17T01:36:51.107Z,12.77
2023-03-17T01:38:22.795Z,10.35
2023-03-17T01:39:54.797Z,11.45
2023-03-17T01:41:26.484Z,10.07
2023-03-17T01:43:17.436Z,10.32
2023-03-17T01:45:01.213Z,10.40
2023-03-17T01:46:35.894Z,9.32
2023-03-17T01:48:07.516Z,8.57
2023-03-17T01:49:39.642Z,8.45
2023-03-17T01:51:36.340Z,8.43
2023-03-17T01:53:09.473Z,7.25
2023-03-17T01:55:00.605Z,7.10
2023-03-17T01:56:33.003Z,7.55
2023-03-17T01:58:05.494Z,8.70
2023-03-17T01:59:43.669Z,8.63
2023-03-17T02:01:15.446Z,9.55
2023-03-17T02:02:50.386Z,10.88
2023-03-17T02:04:22.544Z,9.57
2023-03-17T02:05:54.516Z,9.85
2023-03-17T02:07:27.560Z,9.32
2023-03-17T02:09:00.174Z,9.13
2023-03-17T02:10:32.328Z,8.10
2023-03-17T02:12:05.425Z,8.00
2023-03-17T02:13:38.413Z,5.65
2023-03-17T02:15:11.469Z,4.97
2023-03-17T02:16:45.332Z,4.78
2023-03-17T02:18:20.058Z,5.22
2023-03-17T02:19:52.396Z,4.55
2023-03-17T02:21:41.650Z,4.65
2023-03-17T02:23:17.664Z,4.20
2023-03-17T02:26:26.770Z,4.32
2023-03-17T02:28:06.385Z,4.28
2023-03-17T02:29:38.072Z,4.10
2023-03-17T02:31:09.910Z,5.03
2023-03-17T02:32:42.111Z,6.07
2023-03-17T02:34:14.209Z,4.45
2023-03-17T02:35:46.192Z,4.22
2023-03-17T02:37:20.941Z,5.50
2023-03-17T02:38:52.767Z,4.78
2023-03-17T02:40:24.478Z,4.38
2023-03-17T02:41:56.165Z,5.18
2023-03-17T02:43:27.727Z,5.93
2023-03-17T02:45:01.230Z,5.65
2023-03-17T02:46:32.942Z,5.72
2023-03-17T02:48:05.896Z,5.88
2023-03-17T02:49:39.557Z,5.55
2023-03-17T02:51:11.153Z,5.65
2023-03-17T02:52:42.760Z,6.00
2023-03-17T02:54:14.435Z,6.13
2023-03-17T02:55:46.365Z,6.32
2023-03-17T02:57:17.912Z,6.90
2023-03-17T02:58:49.723Z,5.85
2023-03-17T03:00:21.744Z,5.85
2023-03-17T03:01:53.526Z,7.28
2023-03-17T03:03:25.117Z,5.35
2023-03-17T03:04:57.355Z,5.57
2023-03-17T03:06:29.025Z,6.03
2023-03-17T03:08:00.959Z,6.57
2023-03-17T03:09:32.598Z,5.25
2023-03-17T03:11:05.042Z,6.15
2023-03-17T03:12:36.696Z,6.40
2023-03-17T03:14:08.653Z,5.47
2023-03-17T03:15:44.095Z,6.72
2023-03-17T03:17:16.442Z,5.85
2023-03-17T03:18:48.227Z,6.30
2023-03-17T03:20:20.929Z,5.40
2023-03-17T03:21:52.561Z,5.72
2023-03-17T03:23:24.329Z,6.53
2023-03-17T03:24:56.002Z,4.80
2023-03-17T03:26:27.525Z,6.68
2023-03-17T03:27:59.182Z,5.40
2023-03-17T03:29:31.237Z,5.03
2023-03-17T03:31:03.073Z,6.50
2023-03-17T03:32:34.809Z,6.28
2023-03-17T03:34:06.517Z,4.80
2023-03-17T03:35:38.565Z,5.32
2023-03-17T03:37:10.378Z,4.60
2023-03-17T03:38:42.733Z,4.93
2023-03-17T03:40:14.410Z,4.88
2023-03-17T03:41:46.201Z,5.03
2023-03-17T03:43:23.324Z,4.97
2023-03-17T03:44:55.829Z,6.30
2023-03-17T03:46:28.195Z,5.30
2023-03-17T03:47:59.916Z,5.15
2023-03-17T03:49:31.553Z,4.88
2023-03-17T03:51:03.463Z,5.90
2023-03-17T03:52:35.499Z,5.15
2023-03-17T03:54:07.132Z,5.18
2023-03-17T03:55:38.803Z,5.25
2023-03-17T03:57:10.775Z,4.65
2023-03-17T03:58:42.341Z,5.55
2023-03-17T04:00:14.525Z,5.57
2023-03-17T04:01:46.163Z,5.80
2023-03-17T04:03:18.100Z,6.97
2023-03-17T04:04:49.865Z,5.35
2023-03-17T04:06:21.747Z,6.00
2023-03-17T04:07:53.803Z,5.75
2023-03-17T04:09:25.836Z,5.30
2023-03-17T04:10:57.994Z,5.30
2023-03-17T04:12:29.656Z,5.50
2023-03-17T04:14:01.715Z,6.25
2023-03-17T04:15:33.617Z,6.00
2023-03-17T04:17:05.301Z,5.28
2023-03-17T04:18:36.985Z,5.65
2023-03-17T04:20:09.957Z,6.18
2023-03-17T04:21:42.244Z,4.95
2023-03-17T04:23:13.840Z,5.88
2023-03-17T04:24:46.004Z,5.78
2023-03-17T04:26:18.711Z,6.82
2023-03-17T04:27:50.322Z,6.85
2023-03-17T04:29:21.937Z,6.57
2023-03-17T04:30:53.567Z,5.97
2023-03-17T04:32:27.179Z,6.57
2023-03-17T04:33:59.030Z,6.97
2023-03-17T04:35:30.591Z,6.53
2023-03-17T04:37:02.454Z,6.55
2023-03-17T04:38:34.206Z,5.82
2023-03-17T04:40:09.998Z,6.10
2023-03-17T04:41:41.908Z,5.90
2023-03-17T04:43:13.462Z,6.10
2023-03-17T04:44:45.105Z,5.20
2023-03-17T04:46:16.720Z,6.28
2023-03-17T04:47:48.359Z,5.93
2023-03-17T04:49:19.934Z,5.20
2023-03-17T04:50:51.648Z,5.40
2023-03-17T04:52:23.461Z,6.55
2023-03-17T04:53:55.131Z,7.60
2023-03-17T04:55:27.538Z,6.10
2023-03-17T04:56:59.141Z,5.65
2023-03-17T04:58:31.359Z,5.70
2023-03-17T05:00:07.459Z,5.50
2023-03-17T05:01:39.324Z,5.70
2023-03-17T05:03:25.717Z,5.80
2023-03-17T05:04:58.173Z,5.00
2023-03-17T05:06:30.818Z,6.38
2023-03-17T05:08:02.411Z,4.55
2023-03-17T05:09:34.070Z,4.93
2023-03-17T05:11:06.238Z,5.18
2023-03-17T05:12:37.879Z,4.80
2023-03-17T05:14:09.529Z,5.15
2023-03-17T05:15:44.157Z,7.50
2023-03-17T05:17:15.847Z,6.25
2023-03-17T05:18:48.164Z,7.15
2023-03-17T05:20:20.020Z,7.10
2023-03-17T05:21:51.597Z,5.80
2023-03-17T05:23:23.353Z,5.47
2023-03-17T05:24:55.090Z,5.45
2023-03-17T05:26:27.224Z,5.30
2023-03-17T05:27:59.070Z,5.20
2023-03-17T05:29:30.705Z,5.28
2023-03-17T05:31:03.488Z,4.97
2023-03-17T05:32:36.491Z,4.30
2023-03-17T05:34:08.277Z,5.97
2023-03-17T05:35:40.777Z,5.78
2023-03-17T05:37:12.940Z,5.05
2023-03-17T05:38:44.784Z,5.45
2023-03-17T05:40:16.565Z,4.28
2023-03-17T05:41:48.284Z,5.10
2023-03-17T05:43:20.585Z,5.15
2023-03-17T05:44:52.215Z,4.40
2023-03-17T05:46:24.013Z,3.97
2023-03-17T05:47:55.834Z,4.28
2023-03-17T05:49:28.281Z,4.63
2023-03-17T05:51:00.264Z,5.25
2023-03-17T05:52:32.222Z,4.47
2023-03-17T05:54:04.160Z,5.13
2023-03-17T05:55:35.777Z,4.78
2023-03-17T05:57:07.765Z,4.25
2023-03-17T05:58:39.446Z,5.05
2023-03-17T06:00:13.058Z,4.85
2023-03-17T06:01:44.842Z,5.22
2023-03-17T06:03:16.485Z,5.63
2023-03-17T06:04:48.080Z,5.72
2023-03-17T06:06:20.081Z,7.18
2023-03-17T06:07:56.221Z,7.45
2023-03-17T06:09:28.192Z,7.55
2023-03-17T06:10:59.850Z,7.88
2023-03-17T06:12:31.505Z,6.38
2023-03-17T06:14:03.171Z,6.80
2023-03-17T06:15:37.006Z,6.93
2023-03-17T06:17:08.637Z,7.35
2023-03-17T06:18:41.031Z,5.97
2023-03-17T06:20:13.307Z,6.63
2023-03-17T06:21:45.150Z,5.78
2023-03-17T06:23:17.379Z,5.82
2023-03-17T06:24:49.087Z,5.00
2023-03-17T06:26:20.746Z,6.43
2023-03-17T06:27:54.738Z,7.47
2023-03-17T06:29:26.359Z,8.43
2023-03-17T06:30:58.568Z,8.93
2023-03-17T06:32:30.700Z,9.80
2023-03-17T06:34:03.123Z,5.95
2023-03-17T06:35:35.263Z,4.30
2023-03-17T06:37:06.986Z,4.28
2023-03-17T06:38:39.356Z,5.22
2023-03-17T06:40:12.561Z,4.07
2023-03-17T06:41:44.253Z,5.50
2023-03-17T06:43:17.467Z,5.43
2023-03-17T06:44:52.431Z,6.30
2023-03-17T06:46:24.134Z,6.15
2023-03-17T06:47:56.153Z,7.13
2023-03-17T06:49:27.734Z,7.18
2023-03-17T06:50:59.705Z,6.35
2023-03-17T06:52:31.740Z,5.85
2023-03-17T06:54:03.896Z,5.07
2023-03-17T06:55:35.705Z,5.00
2023-03-17T06:57:09.595Z,5.72
2023-03-17T06:58:41.927Z,5.45
2023-03-17T07:00:15.857Z,5.05
2023-03-17T07:01:49.015Z,5.70
2023-03-17T07:03:22.484Z,5.63
2023-03-17T07:04:54.290Z,5.00
2023-03-17T07:06:25.922Z,4.45
2023-03-17T07:07:57.682Z,4.72
2023-03-17T07:09:29.512Z,4.93
2023-03-17T07:11:01.834Z,5.38
2023-03-17T07:12:33.779Z,6.07
2023-03-17T07:14:06.354Z,5.00
2023-03-17T07:15:38.691Z,5.68
2023-03-17T07:17:12.456Z,4.63
2023-03-17T07:18:44.985Z,4.80
2023-03-17T07:20:16.872Z,4.88
2023-03-17T07:21:48.447Z,4.97
2023-03-17T07:23:22.730Z,5.30
2023-03-17T07:24:54.397Z,5.18
2023-03-17T07:26:26.395Z,4.72
2023-03-17T07:27:58.555Z,6.05
2023-03-17T07:29:32.395Z,5.60
2023-03-17T07:31:07.755Z,4.70
2023-03-17T07:32:39.607Z,4.97
2023-03-17T07:34:12.791Z,4.88
2023-03-17T07:35:44.517Z,4.93
2023-03-17T07:37:16.113Z,4.75
2023-03-17T07:38:48.606Z,4.30
2023-03-17T07:40:20.195Z,5.25
2023-03-17T07:41:55.565Z,4.53
2023-03-17T07:43:27.267Z,5.13
2023-03-17T07:44:58.919Z,4.72
2023-03-17T07:46:30.877Z,4.97
2023-03-17T07:48:06.865Z,4.68
2023-03-17T07:51:17.173Z,4.38
2023-03-17T07:52:48.835Z,5.07
2023-03-17T07:54:21.134Z,4.32
2023-03-17T07:55:52.760Z,5.03
2023-03-17T07:57:24.730Z,4.13
2023-03-17T07:58:58.513Z,4.55
2023-03-17T08:00:30.943Z,4.78
2023-03-17T08:02:03.008Z,4.60
2023-03-17T08:03:34.830Z,4.65
2023-03-17T08:05:07.744Z,5.13
2023-03-17T08:06:43.317Z,4.55
2023-03-17T08:08:15.450Z,4.70
2023-03-17T08:09:47.814Z,4.78
2023-03-17T08:11:20.294Z,4.70
2023-03-17T08:12:52.008Z,5.35
2023-03-17T08:14:23.652Z,4.32
2023-03-17T08:15:55.390Z,4.05
2023-03-17T08:17:27.545Z,5.25
2023-03-17T08:18:59.528Z,5.28
2023-03-17T08:20:31.813Z,4.20
2023-03-17T08:22:03.733Z,5.43
2023-03-17T08:23:35.692Z,6.47
2023-03-17T08:25:09.683Z,4.43
2023-03-17T08:26:41.433Z,4.05
2023-03-17T08:28:15.228Z,4.00
2023-03-17T08:29:47.201Z,4.55
2023-03-17T08:31:22.713Z,4.55
2023-03-17T08:32:57.176Z,5.07
2023-03-17T08:34:29.177Z,5.63
2023-03-17T08:36:04.717Z,4.75
2023-03-17T08:37:37.828Z,4.40
2023-03-17T08:39:10.523Z,4.72
2023-03-17T08:40:42.780Z,4.93
2023-03-17T08:42:14.715Z,5.53
2023-03-17T08:43:46.949Z,5.70
2023-03-17T08:45:18.853Z,4.25
2023-03-17T08:46:51.615Z,5.03
2023-03-17T08:48:23.231Z,4.18
2023-03-17T08:49:56.312Z,4.93
2023-03-17T08:51:32.084Z,5.07
2023-03-17T08:53:04.308Z,4.78
2023-03-17T08:54:36.109Z,5.07
2023-03-17T08:56:08.493Z,5.00
2023-03-17T08:57:40.223Z,5.55
2023-03-17T08:59:12.470Z,5.60
2023-03-17T09:00:46.906Z,4.95
2023-03-17T09:02:19.206Z,4.63
2023-03-17T09:03:53.387Z,4.85
2023-03-17T09:05:25.273Z,5.47
2023-03-17T09:07:04.794Z,7.03
2023-03-17T09:08:39.819Z,4.88
2023-03-17T09:10:13.801Z,5.53
2023-03-17T09:11:45.501Z,5.07
2023-03-17T09:13:17.735Z,5.45
2023-03-17T09:14:49.479Z,4.05
2023-03-17T09:16:23.156Z,4.35
2023-03-17T09:17:55.133Z,4.10
2023-03-17T09:19:27.230Z,5.57
2023-03-17T09:20:59.718Z,5.03
2023-03-17T09:22:31.307Z,4.70
2023-03-17T09:24:03.719Z,3.97
2023-03-17T09:25:40.015Z,3.78
2023-03-17T09:27:12.045Z,3.40
2023-03-17T09:28:44.780Z,3.22
2023-03-17T09:30:17.643Z,4.22
2023-03-17T09:31:49.318Z,4.15
2023-03-17T09:33:20.975Z,3.25
2023-03-17T09:34:52.655Z,3.00
2023-03-17T09:36:24.680Z,4.55
2023-03-17T09:37:56.326Z,3.10
2023-03-17T09:39:28.011Z,4.10
2023-03-17T09:41:14.765Z,3.10
2023-03-17T09:43:11.314Z,3.58
2023-03-17T09:45:17.428Z,2.70
2023-03-17T09:46:57.968Z,3.78
2023-03-17T09:48:41.881Z,4.10
2023-03-17T09:50:19.199Z,2.83
2023-03-17T09:51:51.609Z,3.78
2023-03-17T09:53:36.556Z,4.28
2023-03-17T09:55:18.425Z,4.63
2023-03-17T09:56:59.119Z,4.65
2023-03-17T09:58:36.321Z,3.97
2023-03-17T10:00:18.452Z,3.00
2023-03-17T10:01:50.363Z,3.20
2023-03-17T10:03:23.553Z,3.33
2023-03-17T10:04:56.275Z,2.97
2023-03-17T10:06:34.940Z,2.90
2023-03-17T10:08:28.975Z,2.83
2023-03-17T10:10:13.418Z,3.05
2023-03-17T10:11:48.624Z,3.60
2023-03-17T10:13:20.186Z,3.08
2023-03-17T10:15:00.790Z,3.58
2023-03-17T10:16:51.346Z,3.25
2023-03-17T10:18:27.876Z,3.10
2023-03-17T10:20:05.983Z,2.50
2023-03-17T10:21:48.203Z,3.70
2023-03-17T10:23:23.979Z,2.85
2023-03-17T10:25:03.889Z,3.60
2023-03-17T10:26:47.831Z,2.88
2023-03-17T10:28:23.826Z,2.85
2023-03-17T10:29:57.062Z,2.95
2023-03-17T10:31:33.338Z,2.95
2023-03-17T10:33:07.192Z,2.97
2023-03-17T10:34:39.864Z,2.83
2023-03-17T10:36:15.775Z,3.00
2023-03-17T10:37:48.363Z,4.22
2023-03-17T10:39:24.736Z,4.05
2023-03-17T10:41:05.715Z,4.07
2023-03-17T10:42:49.307Z,4.55
2023-03-17T10:44:30.633Z,3.40
2023-03-17T10:46:05.163Z,4.60
2023-03-17T10:47:46.075Z,3.65
2023-03-17T10:49:18.256Z,3.92
2023-03-17T10:50:50.276Z,3.15
2023-03-17T10:52:27.775Z,4.43
2023-03-17T10:54:01.376Z,2.60
2023-03-17T10:55:44.807Z,3.83
2023-03-17T10:57:18.388Z,3.30
2023-03-17T10:58:52.700Z,4.30
2023-03-17T11:00:24.929Z,3.97
2023-03-17T11:02:00.175Z,3.85
2023-03-17T11:03:35.316Z,2.67
2023-03-17T11:05:19.460Z,3.88
2023-03-17T11:06:52.484Z,3.67
2023-03-17T11:08:24.483Z,3.50
2023-03-17T11:10:01.452Z,2.70
2023-03-17T11:11:43.179Z,4.05
2023-03-17T11:13:17.818Z,2.75
2023-03-17T11:14:50.016Z,2.95
2023-03-17T11:16:24.224Z,4.35
2023-03-17T11:17:58.022Z,3.22
2023-03-17T11:19:46.108Z,2.50
2023-03-17T11:21:26.670Z,3.03
2023-03-17T11:23:06.956Z,3.88
2023-03-17T11:24:53.803Z,3.50
2023-03-17T11:26:47.680Z,3.67
2023-03-17T11:28:22.820Z,3.17
2023-03-17T11:30:12.903Z,3.45
2023-03-17T11:31:58.293Z,2.47
2023-03-17T11:33:48.499Z,3.30
2023-03-17T11:35:37.052Z,3.28
2023-03-17T11:37:26.232Z,3.70
2023-03-17T11:39:05.654Z,3.45
2023-03-17T11:40:46.870Z,3.35
2023-03-17T11:42:41.453Z,3.15
2023-03-17T11:46:05.634Z,2.30
2023-03-17T11:47:52.304Z,2.90
2023-03-17T11:49:38.124Z,1.92
2023-03-17T11:51:22.140Z,2.60
2023-03-17T11:53:19.610Z,2.63
2023-03-17T11:55:02.458Z,2.47
2023-03-17T11:56:46.363Z,2.90
2023-03-17T11:58:32.147Z,3.28
2023-03-17T12:00:07.705Z,2.20
2023-03-17T12:02:04.714Z,2.30
2023-03-17T12:03:43.372Z,2.22
2023-03-17T12:05:24.278Z,2.20
2023-03-17T12:07:15.889Z,2.17
2023-03-17T12:09:00.815Z,2.65
2023-03-17T12:10:52.265Z,1.75
2023-03-17T12:12:30.312Z,2.22
2023-03-17T12:14:11.301Z,3.03
2023-03-17T12:15:46.152Z,2.10
2023-03-17T12:17:30.303Z,2.20
2023-03-17T12:19:10.210Z,3.50
2023-03-17T12:20:57.853Z,2.63
2023-03-17T12:22:50.758Z,2.28
2023-03-17T12:24:24.985Z,2.72
2023-03-17T12:26:12.384Z,3.42
2023-03-17T12:27:53.137Z,2.55
2023-03-17T12:29:51.720Z,2.30
2023-03-17T12:31:31.774Z,1.98
2023-03-17T12:33:10.884Z,2.00
2023-03-17T12:34:52.061Z,2.70
2023-03-17T12:36:24.362Z,2.58
2023-03-17T12:37:59.449Z,2.97
2023-03-17T12:39:33.619Z,4.18
2023-03-17T12:41:15.232Z,3.90
2023-03-17T12:43:02.783Z,4.60
2023-03-17T12:45:05.577Z,1.75
2023-03-17T12:46:49.284Z,3.88
2023-03-17T12:48:33.678Z,2.80
2023-03-17T12:50:27.413Z,2.00
2023-03-17T12:52:01.945Z,3.40
2023-03-17T12:53:37.851Z,2.28
2023-03-17T12:55:14.477Z,2.10
2023-03-17T12:56:48.141Z,2.50
2023-03-17T12:58:53.265Z,2.55
2023-03-17T13:00:29.676Z,2.15
2023-03-17T13:02:29.311Z,1.70
2023-03-17T13:04:13.119Z,2.35
2023-03-17T13:05:48.081Z,2.10
2023-03-17T13:07:24.025Z,4.30
2023-03-17T13:08:55.807Z,2.00
2023-03-17T13:10:37.364Z,1.70
2023-03-17T13:12:40.951Z,1.20
2023-03-17T13:14:29.356Z,3.72
2023-03-17T13:16:05.715Z,1.42
2023-03-17T13:17:38.183Z,1.48
2023-03-17T13:19:26.871Z,2.30
2023-03-17T13:21:01.136Z,1.27
2023-03-17T13:22:57.338Z,1.42
2023-03-17T13:24:51.843Z,1.20
2023-03-17T13:28:13.740Z,1.33
2023-03-17T13:29:47.276Z,2.00
2023-03-17T13:31:29.166Z,1.98
2023-03-17T13:33:10.018Z,1.80
2023-03-17T13:34:50.635Z,1.10
2023-03-17T13:36:49.609Z,1.70
2023-03-17T13:38:39.327Z,2.65
2023-03-17T13:40:24.938Z,2.58
2023-03-17T13:42:18.959Z,1.50
2023-03-17T13:44:24.418Z,1.55
2023-03-17T13:46:19.785Z,1.60
2023-03-17T13:47:52.699Z,1.20
2023-03-17T13:49:30.161Z,1.88
2023-03-17T13:51:08.929Z,2.05
2023-03-17T13:52:47.539Z,2.47
2023-03-17T13:54:28.393Z,2.65
2023-03-17T13:56:14.460Z,2.42
2023-03-17T13:58:10.856Z,1.30
2023-03-17T14:00:28.511Z,2.15
2023-03-17T14:02:11.367Z,2.33
2023-03-17T14:03:49.061Z,2.35
2023-03-17T14:05:23.819Z,2.20
2023-03-17T14:07:00.563Z,2.30
2023-03-17T14:08:35.705Z,1.80
2023-03-17T14:10:10.306Z,2.15
2023-03-17T14:11:46.313Z,1.50
2023-03-17T14:15:06.979Z,0.90
2023-03-17T14:16:52.421Z,1.42
2023-03-17T14:18:49.662Z,1.17
2023-03-17T14:20:24.816Z,1.20
2023-03-17T14:22:17.944Z,2.00
2023-03-17T14:24:01.484Z,2.58
2023-03-17T14:25:37.754Z,2.55
2023-03-17T14:27:12.634Z,2.25
2023-03-17T14:28:44.360Z,2.70
2023-03-17T14:30:19.828Z,2.08
2023-03-17T14:32:02.419Z,2.72
2023-03-17T14:33:38.296Z,3.45
2023-03-17T14:35:13.919Z,2.80
2023-03-17T14:36:45.626Z,2.25
2023-03-17T14:38:29.991Z,2.05
2023-03-17T14:40:01.820Z,1.80
2023-03-17T14:41:37.502Z,2.00
2023-03-17T14:44:43.719Z,2.70
2023-03-17T14:46:25.959Z,4.32
2023-03-17T14:47:58.066Z,4.78
2023-03-17T14:49:32.016Z,2.60
2023-03-17T14:51:10.737Z,2.90
2023-03-17T14:52:42.833Z,3.92
2023-03-17T14:54:25.040Z,2.25
2023-03-17T14:55:57.460Z,3.15
2023-03-17T14:57:33.232Z,2.30
2023-03-17T15:00:57.148Z,1.50
2023-03-17T15:02:38.374Z,2.30
2023-03-17T15:04:17.843Z,2.30
2023-03-17T15:05:50.377Z,2.00
2023-03-17T15:07:31.340Z,2.28
2023-03-17T15:09:17.007Z,3.13
2023-03-17T15:10:48.814Z,1.48
2023-03-17T15:12:24.394Z,2.20
2023-03-17T15:14:31.877Z,1.98
2023-03-17T15:16:30.826Z,2.10
2023-03-17T15:18:12.968Z,2.53
2023-03-17T15:19:47.932Z,2.40
2023-03-17T15:21:28.760Z,2.05
2023-03-17T15:23:04.870Z,2.58
2023-03-17T15:24:40.823Z,3.03
2023-03-17T15:26:29.175Z,2.72
2023-03-17T15:28:00.938Z,3.17
2023-03-17T15:29:36.452Z,3.60
2023-03-17T15:31:13.352Z,3.88
2023-03-17T15:33:00.906Z,3.72
2023-03-17T15:34:32.611Z,3.72
2023-03-17T15:36:04.922Z,3.55
2023-03-17T15:37:36.673Z,3.17
2023-03-17T15:39:09.412Z,4.05
2023-03-17T15:40:41.421Z,4.85
2023-03-17T15:42:13.137Z,4.30
2023-03-17T15:43:44.741Z,3.80
2023-03-17T15:45:17.401Z,2.47
2023-03-17T15:46:49.063Z,3.25
2023-03-17T15:48:26.061Z,2.85
2023-03-17T15:50:00.160Z,2.63
2023-03-17T15:51:31.800Z,3.42
2023-03-17T15:53:03.962Z,3.20
2023-03-17T15:54:36.127Z,2.88
2023-03-17T15:56:16.021Z,2.70
2023-03-17T15:57:54.850Z,3.63
2023-03-17T15:59:27.228Z,2.70
2023-03-17T16:00:59.772Z,2.30
2023-03-17T16:02:34.033Z,3.92
2023-03-17T16:04:06.957Z,2.47
2023-03-17T16:05:38.939Z,2.47
2023-03-17T16:07:13.620Z,2.13
2023-03-17T16:08:46.285Z,3.13
2023-03-17T16:10:20.097Z,4.82
2023-03-17T16:11:52.293Z,6.45
2023-03-17T16:13:24.046Z,6.90
2023-03-17T16:14:55.793Z,6.90
2023-03-17T16:16:39.765Z,8.05
2023-03-17T16:18:18.218Z,5.30
2023-03-17T16:19:50.434Z,7.97
2023-03-17T16:21:22.335Z,6.75
2023-03-17T16:22:57.170Z,6.95
2023-03-17T16:24:28.908Z,6.63
2023-03-17T16:26:13.710Z,7.00
2023-03-17T16:27:47.073Z,7.05
2023-03-17T16:29:21.234Z,5.40
2023-03-17T16:30:54.691Z,4.50
2023-03-17T16:32:26.618Z,4.45
2023-03-17T16:33:58.588Z,4.63
2023-03-17T16:35:30.267Z,3.42
2023-03-17T16:37:03.234Z,3.40
2023-03-17T16:38:34.931Z,3.72
2023-03-17T16:40:19.311Z,3.15
2023-03-17T16:41:51.539Z,3.45
2023-03-17T16:43:26.611Z,2.70
2023-03-17T16:44:58.318Z,3.47
2023-03-17T16:46:35.377Z,3.20
2023-03-17T16:48:13.128Z,3.88
2023-03-17T16:49:44.717Z,3.30
2023-03-17T16:51:16.538Z,3.47
2023-03-17T16:52:48.694Z,2.92
2023-03-17T16:54:20.552Z,3.72
2023-03-17T16:55:54.002Z,3.40
2023-03-17T16:57:25.792Z,3.05
2023-03-17T16:58:57.623Z,2.67
2023-03-17T17:00:31.182Z,2.75
2023-03-17T17:02:03.150Z,2.90
2023-03-17T17:03:37.806Z,3.85
2023-03-17T17:05:19.129Z,3.65
2023-03-17T17:06:50.844Z,2.13
2023-03-17T17:08:22.594Z,2.72
2023-03-17T17:09:54.207Z,2.42
2023-03-17T17:11:25.863Z,2.40
2023-03-17T17:12:57.701Z,2.80
2023-03-17T17:14:29.414Z,2.50
2023-03-17T17:16:04.242Z,2.42
2023-03-17T17:17:38.079Z,2.95
2023-03-17T17:19:16.673Z,3.13
2023-03-17T17:20:49.269Z,2.90
2023-03-17T17:22:20.896Z,1.90
2023-03-17T17:23:53.427Z,1.90
2023-03-17T17:25:25.604Z,2.10
2023-03-17T17:26:57.518Z,3.25
2023-03-17T17:28:29.214Z,2.92
2023-03-17T17:30:01.058Z,3.17
2023-03-17T17:31:35.459Z,4.82
2023-03-17T17:33:07.170Z,4.45
2023-03-17T17:34:38.873Z,5.15
2023-03-17T17:36:16.391Z,3.70
2023-03-17T17:37:48.049Z,3.22
2023-03-17T17:39:19.708Z,2.78
2023-03-17T17:40:51.486Z,2.00
2023-03-17T17:42:23.586Z,1.90
2023-03-17T17:43:56.116Z,3.15
2023-03-17T17:45:27.768Z,2.80
2023-03-17T17:46:59.491Z,3.13
2023-03-17T17:48:31.234Z,4.07
2023-03-17T17:50:02.927Z,3.95
2023-03-17T17:51:34.594Z,3.92
2023-03-17T17:53:08.778Z,3.88
2023-03-17T17:54:40.804Z,2.63
2023-03-17T17:56:17.701Z,3.00
2023-03-17T17:57:51.971Z,2.00
2023-03-17T17:59:24.140Z,2.58
2023-03-17T18:00:57.298Z,1.80
2023-03-17T18:02:29.083Z,3.10
2023-03-17T18:04:00.834Z,1.88
2023-03-17T18:05:32.602Z,2.72
2023-03-17T18:07:04.575Z,2.10
2023-03-17T18:08:37.216Z,2.03
2023-03-17T18:10:16.718Z,1.60
2023-03-17T18:11:48.580Z,1.98
2023-03-17T18:13:20.544Z,2.17
2023-03-17T18:14:52.144Z,2.25
2023-03-17T18:16:24.606Z,2.70
2023-03-17T18:17:56.750Z,2.83
2023-03-17T18:19:28.408Z,2.40
2023-03-17T18:21:00.284Z,3.20
2023-03-17T18:22:32.043Z,2.83
2023-03-17T18:24:04.804Z,2.33
2023-03-17T18:25:37.393Z,2.67
2023-03-17T18:27:09.424Z,2.38
2023-03-17T18:28:41.877Z,2.42
2023-03-17T18:30:21.232Z,3.38
2023-03-17T18:31:54.882Z,2.53
2023-03-17T18:33:27.036Z,4.38
2023-03-17T18:35:02.874Z,3.20
2023-03-17T18:38:06.109Z,3.10
2023-03-17T18:39:38.592Z,4.28
2023-03-17T18:41:11.119Z,3.08
2023-03-17T18:42:42.875Z,4.00
2023-03-17T18:44:14.907Z,3.15
2023-03-17T18:45:46.600Z,4.32
2023-03-17T18:47:18.550Z,3.25
2023-03-17T18:48:51.080Z,3.95
2023-03-17T18:50:22.854Z,3.58
2023-03-17T18:51:56.360Z,5.32
2023-03-17T18:53:30.026Z,5.93
2023-03-17T18:55:01.919Z,3.92
2023-03-17T18:56:33.614Z,5.07
2023-03-17T18:58:06.344Z,4.57
2023-03-17T18:59:37.942Z,5.03
2023-03-17T19:01:09.821Z,4.38
2023-03-17T19:02:41.765Z,3.97
2023-03-17T19:04:13.543Z,4.43
2023-03-17T19:05:45.934Z,4.32
2023-03-17T19:07:18.026Z,4.53
2023-03-17T19:08:49.981Z,4.80
2023-03-17T19:10:21.611Z,4.18
2023-03-17T19:11:53.320Z,3.80
2023-03-17T19:13:25.831Z,3.90
2023-03-17T19:14:57.586Z,4.28
2023-03-17T19:16:30.817Z,6.03
2023-03-17T19:18:02.673Z,5.50
2023-03-17T19:19:35.440Z,5.15
2023-03-17T19:21:08.458Z,5.15
2023-03-17T19:22:40.480Z,5.35
2023-03-17T19:24:14.221Z,5.97
2023-03-17T19:25:46.048Z,6.88
2023-03-17T19:27:18.069Z,5.28
2023-03-17T19:28:49.741Z,5.43
2023-03-17T19:30:21.534Z,5.35
2023-03-17T19:31:53.776Z,6.07
2023-03-17T19:33:25.715Z,5.47
2023-03-17T19:34:57.426Z,4.93
2023-03-17T19:36:36.184Z,5.05
2023-03-17T19:38:11.308Z,7.20
2023-03-17T19:39:45.054Z,6.30
2023-03-17T19:41:17.865Z,6.00
2023-03-17T19:42:49.993Z,6.18
2023-03-17T19:44:22.138Z,6.55
2023-03-17T19:45:54.175Z,5.20
2023-03-17T19:47:25.870Z,4.95
2023-03-17T19:48:57.683Z,6.03
2023-03-17T19:50:30.782Z,5.40
2023-03-17T19:52:03.296Z,4.97
2023-03-17T19:53:35.575Z,6.70
2023-03-17T19:55:08.417Z,5.22
2023-03-17T19:56:40.535Z,5.80
2023-03-17T19:58:12.880Z,5.32
2023-03-17T19:59:44.775Z,5.45
2023-03-17T20:01:17.315Z,7.00
2023-03-17T20:02:49.934Z,6.00
2023-03-17T20:04:23.342Z,5.10
2023-03-17T20:05:55.404Z,5.50
2023-03-17T20:07:27.049Z,5.47
2023-03-17T20:08:58.765Z,5.60
2023-03-17T20:10:30.747Z,5.82
2023-03-17T20:12:02.529Z,6.53
2023-03-17T20:13:35.432Z,6.28
2023-03-17T20:15:08.521Z,8.10
2023-03-17T20:16:41.566Z,6.18
2023-03-17T20:18:13.436Z,7.40
2023-03-17T20:19:45.534Z,5.88
2023-03-17T20:21:17.237Z,7.40
2023-03-17T20:22:48.965Z,5.90
2023-03-17T20:24:20.751Z,5.63
2023-03-17T20:25:53.397Z,5.63
2023-03-17T20:27:25.379Z,7.25
2023-03-17T20:28:57.052Z,7.07
2023-03-17T20:30:28.744Z,8.85
2023-03-17T20:32:02.168Z,8.80
2023-03-17T20:33:34.336Z,7.75
2023-03-17T20:35:07.912Z,7.97
2023-03-17T20:36:42.438Z,7.75
2023-03-17T20:38:14.745Z,7.90
2023-03-17T20:39:46.486Z,7.35
2023-03-17T20:41:19.519Z,7.65
2023-03-17T20:42:52.067Z,7.43
2023-03-17T20:44:24.164Z,8.73
2023-03-17T20:45:55.817Z,7.63
2023-03-17T20:47:28.272Z,6.95
2023-03-17T20:49:01.182Z,6.55
2023-03-17T20:50:34.340Z,9.23
2023-03-17T20:52:06.682Z,7.05
2023-03-17T20:53:38.938Z,7.18
2023-03-17T20:55:14.089Z,6.82
2023-03-17T20:56:45.854Z,7.00
2023-03-17T20:58:19.927Z,8.00
2023-03-17T20:59:52.021Z,7.32
2023-03-17T21:01:24.079Z,10.00
2023-03-17T21:02:55.929Z,12.05
2023-03-17T21:04:27.654Z,11.40
2023-03-17T21:06:00.346Z,10.38
2023-03-17T21:07:32.016Z,9.52
2023-03-17T21:09:04.951Z,8.02
2023-03-17T21:10:36.728Z,7.47
2023-03-17T21:12:13.007Z,7.68
2023-03-17T21:13:45.231Z,8.60
2023-03-17T21:15:16.888Z,8.75
2023-03-17T21:16:49.355Z,7.47